sensor_id;sensor_type;location;lat;lon;timestamp;pressure;altitude;pressure_sealevel;temperature;humidity
49397;BME280;35615;41.410;2.194;2023-03-11T00:02:17;101184.88;;;22.42;35.16
49397;BME280;35615;41.410;2.194;2023-03-11T00:04:47;101172.50;;;22.59;35.08
49397;BME280;35615;41.410;2.194;2023-03-11T00:07:19;101197.94;;;22.63;34.71
49397;BME280;35615;41.410;2.194;2023-03-11T00:09:53;101189.22;;;22.50;34.96
49397;BME280;35615;41.410;2.194;2023-03-11T00:12:24;101181.34;;;22.41;35.46
49397;BME280;35615;41.410;2.194;2023-03-11T00:14:52;101197.00;;;22.70;35.09
49397;BME280;35615;41.410;2.194;2023-03-11T00:17:19;101169.03;;;22.51;35.17
49397;BME280;35615;41.410;2.194;2023-03-11T00:19:46;101176.94;;;22.52;35.40
49397;BME280;35615;41.410;2.194;2023-03-11T00:22:13;101182.22;;;22.39;35.61
49397;BME280;35615;41.410;2.194;2023-03-11T00:24:43;101180.47;;;22.42;35.07
49397;BME280;35615;41.410;2.194;2023-03-11T00:27:10;101176.94;;;22.39;35.50
49397;BME280;35615;41.410;2.194;2023-03-11T00:29:37;101170.84;;;22.27;35.71
49397;BME280;35615;41.410;2.194;2023-03-11T00:32:07;101141.88;;;22.40;35.90
49397;BME280;35615;41.410;2.194;2023-03-11T00:34:38;101163.03;;;22.08;36.04
49397;BME280;35615;41.410;2.194;2023-03-11T00:37:05;101163.88;;;22.13;36.20
49397;BME280;35615;41.410;2.194;2023-03-11T00:39:32;101151.63;;;21.90;36.52
49397;BME280;35615;41.410;2.194;2023-03-11T00:42:00;101117.41;;;22.18;36.21
49397;BME280;35615;41.410;2.194;2023-03-11T00:44:27;101131.47;;;21.97;36.47
49397;BME280;35615;41.410;2.194;2023-03-11T00:46:55;101135.81;;;22.18;36.13
49397;BME280;35615;41.410;2.194;2023-03-11T00:49:23;101126.19;;;22.00;36.37
49397;BME280;35615;41.410;2.194;2023-03-11T00:51:51;101117.38;;;22.05;36.46
49397;BME280;35615;41.410;2.194;2023-03-11T00:54:18;101112.13;;;22.13;35.86
49397;BME280;35615;41.410;2.194;2023-03-11T00:56:46;101124.44;;;21.91;36.70
49397;BME280;35615;41.410;2.194;2023-03-11T01:01:45;101096.41;;;21.84;36.76
49397;BME280;35615;41.410;2.194;2023-03-11T01:04:13;101086.78;;;21.69;37.07
49397;BME280;35615;41.410;2.194;2023-03-11T01:06:40;101095.53;;;21.88;36.92
49397;BME280;35615;41.410;2.194;2023-03-11T01:09:12;101094.59;;;22.12;36.23
49397;BME280;35615;41.410;2.194;2023-03-11T01:11:39;101101.69;;;21.78;37.04
49397;BME280;35615;41.410;2.194;2023-03-11T01:14:07;101091.19;;;21.66;37.29
49397;BME280;35615;41.410;2.194;2023-03-11T01:16:37;101088.56;;;21.63;37.61
49397;BME280;35615;41.410;2.194;2023-03-11T01:19:04;101050.00;;;21.60;37.34
49397;BME280;35615;41.410;2.194;2023-03-11T01:21:31;101045.56;;;21.87;36.75
49397;BME280;35615;41.410;2.194;2023-03-11T01:23:58;101088.56;;;21.67;37.21
49397;BME280;35615;41.410;2.194;2023-03-11T01:26:26;101085.06;;;21.67;37.13
49397;BME280;35615;41.410;2.194;2023-03-11T01:28:55;101067.56;;;21.34;37.71
49397;BME280;35615;41.410;2.194;2023-03-11T01:31:23;101054.38;;;21.60;37.27
49397;BME280;35615;41.410;2.194;2023-03-11T01:33:51;101067.53;;;21.55;37.22
49397;BME280;35615;41.410;2.194;2023-03-11T01:36:18;101050.81;;;21.84;37.21
49397;BME280;35615;41.410;2.194;2023-03-11T01:38:45;101027.19;;;21.76;37.00
49397;BME280;35615;41.410;2.194;2023-03-11T01:41:12;101014.09;;;21.52;37.58
49397;BME280;35615;41.410;2.194;2023-03-11T01:44:02;101042.97;;;21.65;37.00
49397;BME280;35615;41.410;2.194;2023-03-11T01:49:34;101019.34;;;21.47;37.47
49397;BME280;35615;41.410;2.194;2023-03-11T01:52:04;101028.09;;;21.66;37.41
49397;BME280;35615;41.410;2.194;2023-03-11T01:54:41;101008.81;;;21.62;37.17
49397;BME280;35615;41.410;2.194;2023-03-11T01:57:14;101036.81;;;21.75;37.47
49397;BME280;35615;41.410;2.194;2023-03-11T01:59:55;101035.03;;;21.85;37.10
49397;BME280;35615;41.410;2.194;2023-03-11T02:02:30;101009.69;;;21.58;37.66
49397;BME280;35615;41.410;2.194;2023-03-11T02:05:03;101000.09;;;21.51;37.53
49397;BME280;35615;41.410;2.194;2023-03-11T02:07:30;100999.16;;;21.66;37.43
49397;BME280;35615;41.410;2.194;2023-03-11T02:10:06;101009.69;;;21.66;37.34
49397;BME280;35615;41.410;2.194;2023-03-11T02:12:34;100997.47;;;21.39;37.65
49397;BME280;35615;41.410;2.194;2023-03-11T02:15:04;101007.09;;;21.48;37.76
49397;BME280;35615;41.410;2.194;2023-03-11T02:17:35;100981.66;;;21.50;37.92
49397;BME280;35615;41.410;2.194;2023-03-11T02:20:31;100983.44;;;21.44;37.55
49397;BME280;35615;41.410;2.194;2023-03-11T02:23:12;100972.09;;;21.39;37.76
49397;BME280;35615;41.410;2.194;2023-03-11T02:25:48;101013.22;;;21.25;38.43
49397;BME280;35615;41.410;2.194;2023-03-11T02:28:18;100978.19;;;21.44;37.79
49397;BME280;35615;41.410;2.194;2023-03-11T02:30:46;100997.47;;;21.42;38.02
49397;BME280;35615;41.410;2.194;2023-03-11T02:33:15;100973.81;;;21.43;37.78
49397;BME280;35615;41.410;2.194;2023-03-11T02:35:46;100989.63;;;21.31;38.01
49397;BME280;35615;41.410;2.194;2023-03-11T02:38:13;100977.28;;;21.49;37.71
49397;BME280;35615;41.410;2.194;2023-03-11T02:41:01;100972.06;;;21.23;38.36
49397;BME280;35615;41.410;2.194;2023-03-11T02:43:37;101000.13;;;21.33;38.22
49397;BME280;35615;41.410;2.194;2023-03-11T02:46:08;100970.31;;;21.17;38.40
49397;BME280;35615;41.410;2.194;2023-03-11T02:48:37;100965.97;;;21.27;38.15
49397;BME280;35615;41.410;2.194;2023-03-11T02:51:05;100944.03;;;21.35;38.08
49397;BME280;35615;41.410;2.194;2023-03-11T02:53:38;100967.72;;;21.09;38.58
49397;BME280;35615;41.410;2.194;2023-03-11T02:56:07;100971.16;;;21.53;38.14
49397;BME280;35615;41.410;2.194;2023-03-11T02:58:34;100946.66;;;21.37;37.97
49397;BME280;35615;41.410;2.194;2023-03-11T03:01:02;100974.66;;;21.50;38.14
49397;BME280;35615;41.410;2.194;2023-03-11T03:03:29;100947.50;;;21.50;37.88
49397;BME280;35615;41.410;2.194;2023-03-11T03:05:56;100950.19;;;21.33;38.15
49397;BME280;35615;41.410;2.194;2023-03-11T03:08:24;100943.19;;;21.18;38.39
49397;BME280;35615;41.410;2.194;2023-03-11T03:10:52;100963.34;;;21.31;38.26
49397;BME280;35615;41.410;2.194;2023-03-11T03:13:19;100967.72;;;21.18;38.27
49397;BME280;35615;41.410;2.194;2023-03-11T03:15:47;100957.19;;;21.15;38.59
49397;BME280;35615;41.410;2.194;2023-03-11T03:18:14;100958.94;;;21.21;38.66
49397;BME280;35615;41.410;2.194;2023-03-11T03:20:42;100977.34;;;21.33;38.33
49397;BME280;35615;41.410;2.194;2023-03-11T03:23:09;100948.41;;;21.36;38.15
49397;BME280;35615;41.410;2.194;2023-03-11T03:25:36;100939.69;;;21.10;38.73
49397;BME280;35615;41.410;2.194;2023-03-11T03:28:06;100979.97;;;20.94;39.08
49397;BME280;35615;41.410;2.194;2023-03-11T03:30:38;100959.84;;;21.29;38.41
49397;BME280;35615;41.410;2.194;2023-03-11T03:33:06;100953.72;;;21.29;38.28
49397;BME280;35615;41.410;2.194;2023-03-11T03:35:33;100980.88;;;20.79;39.27
49397;BME280;35615;41.410;2.194;2023-03-11T03:38:05;100951.09;;;21.09;38.76
49397;BME280;35615;41.410;2.194;2023-03-11T03:40:33;100954.59;;;21.00;38.91
49397;BME280;35615;41.410;2.194;2023-03-11T03:43:03;100958.06;;;21.21;38.45
49397;BME280;35615;41.410;2.194;2023-03-11T03:45:33;100918.66;;;21.13;38.63
49397;BME280;35615;41.410;2.194;2023-03-11T03:48:01;100949.31;;;21.15;38.43
49397;BME280;35615;41.410;2.194;2023-03-11T03:50:34;100970.34;;;21.20;38.34
49397;BME280;35615;41.410;2.194;2023-03-11T03:53:02;100955.47;;;21.07;38.70
49397;BME280;35615;41.410;2.194;2023-03-11T03:55:29;100963.34;;;21.27;38.66
49397;BME280;35615;41.410;2.194;2023-03-11T03:58:00;100947.63;;;20.96;38.91
49397;BME280;35615;41.410;2.194;2023-03-11T04:00:32;100976.47;;;20.93;39.08
49397;BME280;35615;41.410;2.194;2023-03-11T04:03:03;100956.34;;;21.07;38.67
49397;BME280;35615;41.410;2.194;2023-03-11T04:05:41;100955.47;;;21.02;38.71
49397;BME280;35615;41.410;2.194;2023-03-11T04:08:13;100980.00;;;21.01;39.05
49397;BME280;35615;41.410;2.194;2023-03-11T04:10:41;100954.59;;;21.09;38.57
49397;BME280;35615;41.410;2.194;2023-03-11T04:13:10;100959.84;;;21.08;38.70
49397;BME280;35615;41.410;2.194;2023-03-11T04:15:42;100957.22;;;21.09;38.56
49397;BME280;35615;41.410;2.194;2023-03-11T04:18:14;100938.84;;;21.00;39.08
49397;BME280;35615;41.410;2.194;2023-03-11T04:20:44;100964.22;;;21.00;38.95
49397;BME280;35615;41.410;2.194;2023-03-11T04:23:22;100946.75;;;20.86;39.38
49397;BME280;35615;41.410;2.194;2023-03-11T04:25:49;100969.50;;;20.74;39.33
49397;BME280;35615;41.410;2.194;2023-03-11T04:28:17;100973.88;;;20.66;39.68
49397;BME280;35615;41.410;2.194;2023-03-11T04:30:50;100966.00;;;20.99;39.00
49397;BME280;35615;41.410;2.194;2023-03-11T04:33:17;100959.84;;;21.05;38.72
49397;BME280;35615;41.410;2.194;2023-03-11T04:35:47;100975.63;;;20.88;39.36
49397;BME280;35615;41.410;2.194;2023-03-11T04:38:19;100965.13;;;20.88;39.20
49397;BME280;35615;41.410;2.194;2023-03-11T04:40:47;100975.63;;;20.57;39.85
49397;BME280;35615;41.410;2.194;2023-03-11T04:43:15;100955.47;;;20.72;39.45
49397;BME280;35615;41.410;2.194;2023-03-11T04:45:43;100966.00;;;20.84;39.17
49397;BME280;35615;41.410;2.194;2023-03-11T04:48:11;100973.88;;;20.75;39.33
49397;BME280;35615;41.410;2.194;2023-03-11T04:50:40;100987.84;;;20.60;39.63
49397;BME280;35615;41.410;2.194;2023-03-11T04:53:09;100980.84;;;20.94;39.00
49397;BME280;35615;41.410;2.194;2023-03-11T04:55:40;100997.50;;;20.78;39.55
49397;BME280;35615;41.410;2.194;2023-03-11T04:58:07;100979.13;;;20.70;39.39
49397;BME280;35615;41.410;2.194;2023-03-11T05:00:37;100999.25;;;20.57;39.69
49397;BME280;35615;41.410;2.194;2023-03-11T05:03:08;100994.00;;;20.64;39.49
49397;BME280;35615;41.410;2.194;2023-03-11T05:05:38;100973.00;;;20.57;39.76
49397;BME280;35615;41.410;2.194;2023-03-11T05:08:07;101010.63;;;20.88;39.13
49397;BME280;35615;41.410;2.194;2023-03-11T05:10:34;100975.63;;;20.82;39.16
49397;BME280;35615;41.410;2.194;2023-03-11T05:13:05;100973.88;;;20.76;39.40
49397;BME280;35615;41.410;2.194;2023-03-11T05:15:35;100989.63;;;20.67;39.54
49397;BME280;35615;41.410;2.194;2023-03-11T05:18:05;100992.25;;;20.52;39.71
49397;BME280;35615;41.410;2.194;2023-03-11T05:20:35;100998.38;;;20.77;39.20
49397;BME280;35615;41.410;2.194;2023-03-11T05:23:04;101008.88;;;20.71;39.66
49397;BME280;35615;41.410;2.194;2023-03-11T05:25:33;100976.50;;;20.85;39.54
49397;BME280;35615;41.410;2.194;2023-03-11T05:28:02;100973.88;;;20.99;39.25
49397;BME280;35615;41.410;2.194;2023-03-11T05:30:31;100989.63;;;20.93;39.28
49397;BME280;35615;41.410;2.194;2023-03-11T05:32:58;100986.13;;;20.77;39.26
49397;BME280;35615;41.410;2.194;2023-03-11T05:35:29;100960.72;;;20.82;39.48
49397;BME280;35615;41.410;2.194;2023-03-11T05:37:56;100953.75;;;20.86;39.27
49397;BME280;35615;41.410;2.194;2023-03-11T05:40:26;100973.00;;;21.06;38.81
49397;BME280;35615;41.410;2.194;2023-03-11T05:42:54;100963.34;;;20.82;39.41
49397;BME280;35615;41.410;2.194;2023-03-11T05:45:24;100963.34;;;20.61;39.62
49397;BME280;35615;41.410;2.194;2023-03-11T05:47:53;100968.63;;;20.84;39.25
49397;BME280;35615;41.410;2.194;2023-03-11T05:50:20;100967.72;;;20.48;39.89
49397;BME280;35615;41.410;2.194;2023-03-11T05:52:49;100951.09;;;20.72;39.45
49397;BME280;35615;41.410;2.194;2023-03-11T05:55:17;100986.13;;;20.68;39.57
49397;BME280;35615;41.410;2.194;2023-03-11T05:57:45;100973.88;;;20.81;39.37
49397;BME280;35615;41.410;2.194;2023-03-11T06:00:12;100972.09;;;20.49;39.81
49397;BME280;35615;41.410;2.194;2023-03-11T06:02:41;100970.38;;;20.54;39.59
49397;BME280;35615;41.410;2.194;2023-03-11T06:05:12;100981.69;;;20.37;40.10
49397;BME280;35615;41.410;2.194;2023-03-11T06:07:42;100953.75;;;20.57;39.58
49397;BME280;35615;41.410;2.194;2023-03-11T06:10:09;100947.63;;;20.63;39.53
49397;BME280;35615;41.410;2.194;2023-03-11T06:12:37;100927.47;;;20.72;39.38
49397;BME280;35615;41.410;2.194;2023-03-11T06:15:28;100933.59;;;20.59;40.06
49397;BME280;35615;41.410;2.194;2023-03-11T06:17:55;100978.25;;;20.71;39.11
49397;BME280;35615;41.410;2.194;2023-03-11T06:20:25;100931.84;;;20.59;39.57
49397;BME280;35615;41.410;2.194;2023-03-11T06:22:55;100931.00;;;20.76;39.38
49397;BME280;35615;41.410;2.194;2023-03-11T06:25:29;100964.25;;;20.78;39.39
49397;BME280;35615;41.410;2.194;2023-03-11T06:27:56;100943.25;;;20.74;39.00
49397;BME280;35615;41.410;2.194;2023-03-11T06:30:24;100934.50;;;20.63;39.53
49397;BME280;35615;41.410;2.194;2023-03-11T06:33:02;100914.38;;;20.84;39.00
49397;BME280;35615;41.410;2.194;2023-03-11T06:35:32;100928.38;;;20.62;39.57
49397;BME280;35615;41.410;2.194;2023-03-11T06:38:02;100921.34;;;20.81;38.90
49397;BME280;35615;41.410;2.194;2023-03-11T06:40:30;100899.50;;;20.47;39.71
49397;BME280;35615;41.410;2.194;2023-03-11T06:43:00;100889.88;;;20.67;39.25
49397;BME280;35615;41.410;2.194;2023-03-11T06:45:36;100918.75;;;20.56;39.36
49397;BME280;35615;41.410;2.194;2023-03-11T06:48:18;100926.59;;;20.81;39.05
49397;BME280;35615;41.410;2.194;2023-03-11T06:51:01;100898.63;;;20.49;39.54
49397;BME280;35615;41.410;2.194;2023-03-11T06:53:36;100897.75;;;20.63;39.58
49397;BME280;35615;41.410;2.194;2023-03-11T06:56:12;100888.97;;;20.88;39.13
49397;BME280;35615;41.410;2.194;2023-03-11T06:58:52;100913.47;;;20.69;39.33
49397;BME280;35615;41.410;2.194;2023-03-11T07:01:29;100898.56;;;21.00;38.73
49397;BME280;35615;41.410;2.194;2023-03-11T07:04:11;100899.44;;;21.00;39.00
49397;BME280;35615;41.410;2.194;2023-03-11T07:06:42;100902.97;;;20.82;39.36
49397;BME280;35615;41.410;2.194;2023-03-11T07:09:20;100923.09;;;20.60;39.97
49397;BME280;35615;41.410;2.194;2023-03-11T07:11:54;100907.34;;;20.79;39.44
49397;BME280;35615;41.410;2.194;2023-03-11T07:14:43;100912.59;;;20.86;39.30
49397;BME280;35615;41.410;2.194;2023-03-11T07:17:12;100936.25;;;20.64;39.78
49397;BME280;35615;41.410;2.194;2023-03-11T07:19:47;100901.25;;;20.75;39.69
49397;BME280;35615;41.410;2.194;2023-03-11T07:22:28;100919.63;;;20.58;39.88
49397;BME280;35615;41.410;2.194;2023-03-11T07:25:00;100933.59;;;20.73;39.77
49397;BME280;35615;41.410;2.194;2023-03-11T07:27:28;100954.59;;;20.45;40.29
49397;BME280;35615;41.410;2.194;2023-03-11T07:29:55;100930.97;;;20.97;39.34
49397;BME280;35615;41.410;2.194;2023-03-11T07:32:23;100927.50;;;20.55;40.05
49397;BME280;35615;41.410;2.194;2023-03-11T07:34:56;100938.84;;;20.96;39.40
49397;BME280;35615;41.410;2.194;2023-03-11T07:37:41;100951.09;;;21.03;39.75
49397;BME280;35615;41.410;2.194;2023-03-11T07:40:23;100944.97;;;20.82;39.80
49397;BME280;35615;41.410;2.194;2023-03-11T07:42:55;100968.63;;;20.64;40.40
49397;BME280;35615;41.410;2.194;2023-03-11T07:45:37;100940.63;;;20.69;40.33
49397;BME280;35615;41.410;2.194;2023-03-11T07:48:25;100913.47;;;20.85;39.59
49397;BME280;35615;41.410;2.194;2023-03-11T07:51:08;100956.34;;;20.72;40.10
49397;BME280;35615;41.410;2.194;2023-03-11T07:53:50;100924.84;;;20.62;40.51
49397;BME280;35615;41.410;2.194;2023-03-11T07:56:20;100947.59;;;20.92;39.63
49397;BME280;35615;41.410;2.194;2023-03-11T07:58:53;100945.88;;;20.77;40.37
49397;BME280;35615;41.410;2.194;2023-03-11T08:01:25;100966.88;;;20.52;40.54
49397;BME280;35615;41.410;2.194;2023-03-11T08:04:12;100937.13;;;20.75;40.29
49397;BME280;35615;41.410;2.194;2023-03-11T08:06:47;100970.34;;;20.73;40.53
49397;BME280;35615;41.410;2.194;2023-03-11T08:09:14;100954.59;;;20.80;40.12
49397;BME280;35615;41.410;2.194;2023-03-11T08:11:42;100954.56;;;20.35;41.07
49397;BME280;35615;41.410;2.194;2023-03-11T08:14:15;100956.38;;;20.74;40.41
49397;BME280;35615;41.410;2.194;2023-03-11T08:16:42;100954.63;;;20.62;40.38
49397;BME280;35615;41.410;2.194;2023-03-11T08:19:13;100962.50;;;20.86;40.35
49397;BME280;35615;41.410;2.194;2023-03-11T08:21:40;100961.63;;;20.87;39.98
49397;BME280;35615;41.410;2.194;2023-03-11T08:24:12;100940.63;;;20.87;40.15
49397;BME280;35615;41.410;2.194;2023-03-11T08:26:39;100966.00;;;20.76;40.32
49397;BME280;35615;41.410;2.194;2023-03-11T08:29:07;100965.13;;;20.97;39.87
49397;BME280;35615;41.410;2.194;2023-03-11T08:31:34;100944.97;;;21.01;39.94
49397;BME280;35615;41.410;2.194;2023-03-11T08:34:08;100946.69;;;21.14;39.91
49397;BME280;35615;41.410;2.194;2023-03-11T08:36:45;100960.72;;;21.05;40.08
49397;BME280;35615;41.410;2.194;2023-03-11T08:39:20;100935.31;;;21.18;40.08
49397;BME280;35615;41.410;2.194;2023-03-11T08:41:57;100955.44;;;21.28;39.51
49397;BME280;35615;41.410;2.194;2023-03-11T08:44:28;100979.94;;;21.24;39.63
49397;BME280;35615;41.410;2.194;2023-03-11T08:47:09;100967.72;;;21.34;39.62
49397;BME280;35615;41.410;2.194;2023-03-11T08:49:40;100975.59;;;21.28;39.88
49397;BME280;35615;41.410;2.194;2023-03-11T08:52:16;100971.19;;;21.36;39.28
49397;BME280;35615;41.410;2.194;2023-03-11T08:54:51;100990.44;;;21.47;39.54
49397;BME280;35615;41.410;2.194;2023-03-11T08:57:24;101001.84;;;21.38;39.67
49397;BME280;35615;41.410;2.194;2023-03-11T08:59:59;101007.97;;;21.45;39.42
49397;BME280;35615;41.410;2.194;2023-03-11T09:02:32;101016.69;;;21.61;39.28
49397;BME280;35615;41.410;2.194;2023-03-11T09:05:12;101027.09;;;21.97;38.36
49397;BME280;35615;41.410;2.194;2023-03-11T09:07:53;101017.38;;;22.15;38.60
49397;BME280;35615;41.410;2.194;2023-03-11T09:10:27;100994.53;;;22.24;37.95
49397;BME280;35615;41.410;2.194;2023-03-11T09:13:02;101010.28;;;22.27;37.81
49397;BME280;35615;41.410;2.194;2023-03-11T09:15:43;101009.31;;;22.45;37.55
49397;BME280;35615;41.410;2.194;2023-03-11T09:18:17;101014.47;;;22.65;37.45
49397;BME280;35615;41.410;2.194;2023-03-11T09:20:52;100995.03;;;22.84;37.05
49397;BME280;35615;41.410;2.194;2023-03-11T09:23:35;100993.25;;;22.86;36.58
49397;BME280;35615;41.410;2.194;2023-03-11T09:26:03;100996.38;;;23.28;36.15
49397;BME280;35615;41.410;2.194;2023-03-11T09:28:38;101008.31;;;23.64;35.84
49397;BME280;35615;41.410;2.194;2023-03-11T09:31:19;101010.06;;;24.34;34.59
49397;BME280;35615;41.410;2.194;2023-03-11T09:33:47;101010.56;;;24.61;33.92
49397;BME280;35615;41.410;2.194;2023-03-11T09:36:19;100994.84;;;24.52;33.96
49397;BME280;35615;41.410;2.194;2023-03-11T09:38:47;101000.31;;;24.95;33.21
49397;BME280;35615;41.410;2.194;2023-03-11T09:41:37;101019.09;;;24.78;33.24
49397;BME280;35615;41.410;2.194;2023-03-11T09:44:44;100976.66;;;24.87;33.31
49397;BME280;35615;41.410;2.194;2023-03-11T09:50:20;100992.47;;;24.33;34.32
49397;BME280;35615;41.410;2.194;2023-03-11T09:58:44;100997.72;;;23.67;35.50
49397;BME280;35615;41.410;2.194;2023-03-11T10:07:19;100990.63;;;24.94;33.49
49397;BME280;35615;41.410;2.194;2023-03-11T10:10:08;100993.66;;;25.24;32.90
49397;BME280;35615;41.410;2.194;2023-03-11T10:19:10;100962.66;;;25.32;33.07
49397;BME280;35615;41.410;2.194;2023-03-11T10:22:05;100948.91;;;25.58;32.47
49397;BME280;35615;41.410;2.194;2023-03-11T10:25:00;100935.03;;;25.46;32.95
49397;BME280;35615;41.410;2.194;2023-03-11T10:27:44;100937.19;;;25.28;32.67
49397;BME280;35615;41.410;2.194;2023-03-11T10:30:44;100938.13;;;25.24;32.90
49397;BME280;35615;41.410;2.194;2023-03-11T10:33:42;100937.06;;;25.34;32.75
49397;BME280;35615;41.410;2.194;2023-03-11T10:36:41;100942.28;;;25.80;32.05
49397;BME280;35615;41.410;2.194;2023-03-11T10:42:05;100941.38;;;25.38;32.80
49397;BME280;35615;41.410;2.194;2023-03-11T10:44:39;100932.91;;;25.20;33.20
49397;BME280;35615;41.410;2.194;2023-03-11T10:47:18;100943.56;;;25.59;32.27
49397;BME280;35615;41.410;2.194;2023-03-11T10:49:49;100933.66;;;25.72;32.31
49397;BME280;35615;41.410;2.194;2023-03-11T10:52:24;100932.25;;;26.33;31.30
49397;BME280;35615;41.410;2.194;2023-03-11T10:55:03;100936.75;;;27.01;30.02
49397;BME280;35615;41.410;2.194;2023-03-11T10:57:37;100937.28;;;27.46;29.96
49397;BME280;35615;41.410;2.194;2023-03-11T11:00:08;100966.28;;;27.54;29.17
49397;BME280;35615;41.410;2.194;2023-03-11T11:02:52;100956.66;;;28.10;28.83
49397;BME280;35615;41.410;2.194;2023-03-11T11:05:31;100924.69;;;28.41;28.37
49397;BME280;35615;41.410;2.194;2023-03-11T11:08:13;100929.44;;;28.31;27.85
49397;BME280;35615;41.410;2.194;2023-03-11T11:14:16;100928.69;;;28.54;27.80
49397;BME280;35615;41.410;2.194;2023-03-11T11:16:52;100921.31;;;28.89;27.94
49397;BME280;35615;41.410;2.194;2023-03-11T11:19:29;100902.59;;;28.92;27.30
49397;BME280;35615;41.410;2.194;2023-03-11T11:22:03;100910.03;;;29.07;26.99
49397;BME280;35615;41.410;2.194;2023-03-11T11:24:54;100901.19;;;29.07;27.18
49397;BME280;35615;41.410;2.194;2023-03-11T11:27:26;100893.53;;;29.69;25.87
49397;BME280;35615;41.410;2.194;2023-03-11T11:30:15;100892.19;;;29.58;25.93
49397;BME280;35615;41.410;2.194;2023-03-11T11:32:54;100915.31;;;29.57;25.81
49397;BME280;35615;41.410;2.194;2023-03-11T11:35:31;100917.00;;;29.82;26.11
49397;BME280;35615;41.410;2.194;2023-03-11T11:38:12;100922.78;;;29.93;25.83
49397;BME280;35615;41.410;2.194;2023-03-11T11:40:47;100908.22;;;30.25;25.51
49397;BME280;35615;41.410;2.194;2023-03-11T11:46:21;100894.78;;;30.70;24.98
49397;BME280;35615;41.410;2.194;2023-03-11T11:51:40;100901.25;;;31.26;24.23
49397;BME280;35615;41.410;2.194;2023-03-11T11:54:30;100906.91;;;30.77;24.27
49397;BME280;35615;41.410;2.194;2023-03-11T11:57:18;100916.41;;;31.05;24.56
49397;BME280;35615;41.410;2.194;2023-03-11T12:06:04;100896.31;;;30.96;25.15
49397;BME280;35615;41.410;2.194;2023-03-11T12:08:46;100893.75;;;31.34;24.67
49397;BME280;35615;41.410;2.194;2023-03-11T12:11:50;100896.09;;;31.41;24.08
49397;BME280;35615;41.410;2.194;2023-03-11T12:17:18;100899.25;;;30.70;25.31
49397;BME280;35615;41.410;2.194;2023-03-11T12:20:02;100889.31;;;30.73;24.92
49397;BME280;35615;41.410;2.194;2023-03-11T12:23:03;100875.84;;;30.97;24.77
49397;BME280;35615;41.410;2.194;2023-03-11T12:32:40;100885.50;;;30.36;25.27
49397;BME280;35615;41.410;2.194;2023-03-11T12:41:29;100885.50;;;31.77;24.24
49397;BME280;35615;41.410;2.194;2023-03-11T12:44:37;100886.88;;;31.48;24.14
49397;BME280;35615;41.410;2.194;2023-03-11T12:47:27;100877.88;;;31.31;24.26
49397;BME280;35615;41.410;2.194;2023-03-11T12:50:40;100887.63;;;31.11;24.98
49397;BME280;35615;41.410;2.194;2023-03-11T12:53:23;100901.13;;;30.68;24.95
49397;BME280;35615;41.410;2.194;2023-03-11T13:05:31;100862.09;;;30.01;26.20
49397;BME280;35615;41.410;2.194;2023-03-11T13:11:38;100841.09;;;29.71;26.40
49397;BME280;35615;41.410;2.194;2023-03-11T13:14:44;100838.44;;;29.48;26.95
49397;BME280;35615;41.410;2.194;2023-03-11T13:17:26;100824.19;;;29.72;26.43
49397;BME280;35615;41.410;2.194;2023-03-11T13:26:24;100810.19;;;29.44;26.80
49397;BME280;35615;41.410;2.194;2023-03-11T13:41:18;100816.44;;;29.43;27.31
49397;BME280;35615;41.410;2.194;2023-03-11T13:43:49;100813.47;;;29.05;27.58
49397;BME280;35615;41.410;2.194;2023-03-11T13:46:52;100812.81;;;29.22;27.35
49397;BME280;35615;41.410;2.194;2023-03-11T13:55:22;100827.50;;;29.32;27.52
49397;BME280;35615;41.410;2.194;2023-03-11T13:57:56;100838.41;;;29.49;27.15
49397;BME280;35615;41.410;2.194;2023-03-11T14:00:29;100840.28;;;29.22;27.27
49397;BME280;35615;41.410;2.194;2023-03-11T14:03:04;100856.41;;;28.95;27.82
49397;BME280;35615;41.410;2.194;2023-03-11T14:06:14;100842.75;;;29.04;27.83
49397;BME280;35615;41.410;2.194;2023-03-11T14:08:59;100852.91;;;28.92;27.72
49397;BME280;35615;41.410;2.194;2023-03-11T14:11:36;100842.94;;;28.48;28.41
49397;BME280;35615;41.410;2.194;2023-03-11T14:14:41;100827.16;;;28.17;28.63
49397;BME280;35615;41.410;2.194;2023-03-11T14:17:12;100818.41;;;28.41;28.38
49397;BME280;35615;41.410;2.194;2023-03-11T14:22:39;100814.66;;;28.72;28.11
49397;BME280;35615;41.410;2.194;2023-03-11T14:25:31;100830.63;;;28.72;28.42
49397;BME280;35615;41.410;2.194;2023-03-11T14:28:32;100813.34;;;28.83;28.12
49397;BME280;35615;41.410;2.194;2023-03-11T14:31:52;100816.81;;;28.85;28.03
49397;BME280;35615;41.410;2.194;2023-03-11T14:34:48;100822.63;;;28.72;28.18
49397;BME280;35615;41.410;2.194;2023-03-11T14:37:38;100829.03;;;28.91;27.98
49397;BME280;35615;41.410;2.194;2023-03-11T14:40:31;100827.38;;;28.88;27.33
49397;BME280;35615;41.410;2.194;2023-03-11T14:43:17;100819.63;;;28.81;27.49
49397;BME280;35615;41.410;2.194;2023-03-11T14:46:32;100807.75;;;28.66;27.34
49397;BME280;35615;41.410;2.194;2023-03-11T14:49:04;100822.41;;;28.78;27.65
49397;BME280;35615;41.410;2.194;2023-03-11T14:51:43;100819.06;;;28.98;26.94
49397;BME280;35615;41.410;2.194;2023-03-11T14:54:22;100812.34;;;29.34;26.77
49397;BME280;35615;41.410;2.194;2023-03-11T14:57:06;100819.28;;;29.15;26.57
49397;BME280;35615;41.410;2.194;2023-03-11T14:59:47;100798.50;;;29.25;26.40
49397;BME280;35615;41.410;2.194;2023-03-11T15:05:03;100810.47;;;29.60;26.08
49397;BME280;35615;41.410;2.194;2023-03-11T15:07:45;100802.63;;;29.57;26.00
49397;BME280;35615;41.410;2.194;2023-03-11T15:10:21;100812.53;;;29.53;26.55
49397;BME280;35615;41.410;2.194;2023-03-11T15:13:04;100807.19;;;29.53;26.18
49397;BME280;35615;41.410;2.194;2023-03-11T15:15:54;100804.28;;;29.81;26.33